createdAt,value
2018-09-12T00:02:36.518Z,19.31
2018-09-12T00:05:39.832Z,19.37
2018-09-12T00:08:43.114Z,19.30
2018-09-12T00:11:46.271Z,19.24
2018-09-12T00:14:49.631Z,19.11
2018-09-12T00:17:52.901Z,19.11
2018-09-12T00:20:56.126Z,19.09
2018-09-12T00:23:59.780Z,18.97
2018-09-12T00:27:04.057Z,18.89
2018-09-12T00:30:07.335Z,18.79
2018-09-12T00:33:10.713Z,18.77
2018-09-12T00:36:14.018Z,18.74
2018-09-12T00:39:17.239Z,18.79
2018-09-12T00:42:20.515Z,18.77
2018-09-12T00:45:23.809Z,18.73
2018-09-12T00:48:28.032Z,18.67
2018-09-12T00:51:31.439Z,18.68
2018-09-12T00:54:34.751Z,18.73
2018-09-12T00:57:38.022Z,18.72
2018-09-12T01:00:41.321Z,18.61
2018-09-12T01:03:44.618Z,18.63
2018-09-12T01:06:47.961Z,18.58
2018-09-12T01:09:51.239Z,18.51
2018-09-12T01:12:54.522Z,18.48
2018-09-12T01:15:57.816Z,18.46
2018-09-12T01:19:01.975Z,18.33
2018-09-12T01:22:11.079Z,18.26
2018-09-12T01:25:14.352Z,18.29
2018-09-12T01:28:17.572Z,18.26
2018-09-12T01:31:20.883Z,18.27
2018-09-12T01:34:24.395Z,18.26
2018-09-12T01:37:27.670Z,18.31
2018-09-12T01:40:32.183Z,18.31
2018-09-12T01:43:36.423Z,18.33
2018-09-12T01:46:39.773Z,18.32
2018-09-12T01:49:42.996Z,18.27
2018-09-12T01:52:46.938Z,18.25
2018-09-12T01:55:50.214Z,18.29
2018-09-12T01:58:53.507Z,18.28
2018-09-12T02:01:56.798Z,18.25
2018-09-12T02:05:00.775Z,18.24
2018-09-12T02:08:04.128Z,18.22
2018-09-12T02:11:08.414Z,18.17
2018-09-12T02:14:11.632Z,18.20
2018-09-12T02:17:14.986Z,18.18
2018-09-12T02:20:18.230Z,18.15
2018-09-12T02:23:21.525Z,18.09
2018-09-12T02:26:24.951Z,18.07
2018-09-12T02:29:28.879Z,17.99
2018-09-12T02:32:32.113Z,17.94
2018-09-12T02:35:39.565Z,17.94
2018-09-12T02:38:42.846Z,17.91
2018-09-12T02:41:46.195Z,17.84
2018-09-12T02:44:49.520Z,17.81
2018-09-12T02:47:52.720Z,17.71
2018-09-12T02:50:56.015Z,17.65
2018-09-12T02:54:00.010Z,17.65
2018-09-12T02:57:03.339Z,17.58
2018-09-12T03:00:07.199Z,17.52
2018-09-12T03:03:10.551Z,17.52
2018-09-12T03:06:14.071Z,17.45
2018-09-12T03:09:17.348Z,17.43
2018-09-12T03:12:20.515Z,17.38
2018-09-12T03:15:23.695Z,17.36
2018-09-12T03:18:27.265Z,17.33
2018-09-12T03:21:31.240Z,17.29
2018-09-12T03:24:34.684Z,17.23
2018-09-12T03:27:38.009Z,17.20
2018-09-12T03:30:41.357Z,17.14
2018-09-12T03:33:44.622Z,17.12
2018-09-12T03:36:47.847Z,17.08
2018-09-12T03:39:51.132Z,17.14
2018-09-12T03:42:54.656Z,17.15
2018-09-12T03:45:57.947Z,17.12
2018-09-12T03:49:02.146Z,17.12
2018-09-12T03:52:05.279Z,17.09
2018-09-12T03:55:08.523Z,17.02
2018-09-12T03:58:11.741Z,17.00
2018-09-12T04:01:15.033Z,16.98
2018-09-12T04:04:18.344Z,16.96
2018-09-12T04:07:21.525Z,16.88
2018-09-12T04:10:24.832Z,16.82
2018-09-12T04:13:28.978Z,16.85
2018-09-12T04:16:32.255Z,16.86
2018-09-12T04:19:35.544Z,16.83
2018-09-12T04:22:39.025Z,16.84
2018-09-12T04:25:42.343Z,16.81
2018-09-12T04:28:45.949Z,16.75
2018-09-12T04:31:49.274Z,16.69
2018-09-12T04:34:52.907Z,16.64
2018-09-12T04:37:56.392Z,16.65
2018-09-12T04:41:00.355Z,16.67
2018-09-12T04:44:03.620Z,16.68
2018-09-12T04:47:07.154Z,16.61
2018-09-12T04:50:10.351Z,16.58
2018-09-12T04:53:13.688Z,16.61
2018-09-12T04:56:16.945Z,16.61
2018-09-12T04:59:20.137Z,16.56
2018-09-12T05:02:23.411Z,16.55
2018-09-12T05:05:27.704Z,16.57
2018-09-12T05:08:32.193Z,16.50
2018-09-12T05:11:35.348Z,16.49
2018-09-12T05:14:38.587Z,16.39
2018-09-12T05:17:41.872Z,16.40
2018-09-12T05:20:46.414Z,16.42
2018-09-12T05:23:49.703Z,16.51
2018-09-12T05:26:53.094Z,16.55
2018-09-12T05:29:56.355Z,16.50
2018-09-12T05:33:00.443Z,16.54
2018-09-12T05:36:03.604Z,16.56
2018-09-12T05:39:08.969Z,16.54
2018-09-12T05:42:12.228Z,16.51
2018-09-12T05:45:15.441Z,16.54
2018-09-12T05:48:18.847Z,16.55
2018-09-12T05:51:22.238Z,16.60
2018-09-12T05:54:26.583Z,16.62
2018-09-12T05:57:30.971Z,16.73
2018-09-12T06:00:34.177Z,16.80
2018-09-12T06:03:37.471Z,16.81
2018-09-12T06:06:40.740Z,16.87
2018-09-12T06:09:43.953Z,16.91
2018-09-12T06:12:48.251Z,17.03
2018-09-12T06:15:51.475Z,17.12
2018-09-12T06:18:54.796Z,17.23
2018-09-12T06:21:57.983Z,17.32
2018-09-12T06:25:01.728Z,17.46
2018-09-12T06:28:05.251Z,17.58
2018-09-12T06:31:08.585Z,17.71
2018-09-12T06:34:11.728Z,17.85
2018-09-12T06:37:14.968Z,17.96
2018-09-12T06:40:18.189Z,18.12
2018-09-12T06:43:21.478Z,18.30
2018-09-12T06:46:24.775Z,18.47
2018-09-12T06:49:27.954Z,18.59
2018-09-12T06:52:31.300Z,18.68
2018-09-12T06:55:34.544Z,18.79
2018-09-12T06:58:38.927Z,18.94
2018-09-12T07:01:42.184Z,19.11
2018-09-12T07:04:45.486Z,19.31
2018-09-12T07:07:48.756Z,19.52
2018-09-12T07:10:52.031Z,19.71
2018-09-12T07:13:55.379Z,19.84
2018-09-12T07:16:59.209Z,20.00
2018-09-12T07:20:02.491Z,20.12
2018-09-12T07:23:06.012Z,20.26
2018-09-12T07:26:09.366Z,20.42
2018-09-12T07:29:12.758Z,20.54
2018-09-12T07:32:16.116Z,20.62
2018-09-12T07:35:19.363Z,20.71
2018-09-12T07:38:22.581Z,20.86
2018-09-12T07:41:25.936Z,21.02
2018-09-12T07:44:30.323Z,21.17
2018-09-12T07:47:33.603Z,21.23
2018-09-12T07:50:36.936Z,21.32
2018-09-12T07:53:40.324Z,21.36
2018-09-12T07:56:43.729Z,21.55
2018-09-12T07:59:46.988Z,21.74
2018-09-12T08:02:50.328Z,21.78
2018-09-12T08:05:53.591Z,22.02
2018-09-12T08:08:56.920Z,22.16
2018-09-12T08:12:00.935Z,22.20
2018-09-12T08:15:04.175Z,22.29
2018-09-12T08:18:07.393Z,22.35
2018-09-12T08:21:11.272Z,22.48
2018-09-12T08:24:14.479Z,22.67
2018-09-12T08:27:18.842Z,22.55
2018-09-12T08:30:22.148Z,22.71
2018-09-12T08:33:25.541Z,22.62
2018-09-12T08:36:28.791Z,22.97
2018-09-12T08:39:32.996Z,23.16
2018-09-12T08:42:36.397Z,23.41
2018-09-12T08:45:39.550Z,23.44
2018-09-12T08:48:42.925Z,23.69
2018-09-12T08:51:46.226Z,23.93
2018-09-12T08:54:49.503Z,23.94
2018-09-12T08:57:52.926Z,24.19
2018-09-12T09:00:56.229Z,24.18
2018-09-12T09:04:00.241Z,24.30
2018-09-12T09:07:03.430Z,24.36
2018-09-12T09:10:06.719Z,24.41
2018-09-12T09:13:10.020Z,24.66
2018-09-12T09:16:13.294Z,24.48
2018-09-12T09:19:16.604Z,24.80
2018-09-12T09:22:19.876Z,24.89
2018-09-12T09:25:23.088Z,25.18
2018-09-12T09:28:26.426Z,25.47
2018-09-12T09:31:30.182Z,25.42
2018-09-12T09:34:33.420Z,25.78
2018-09-12T09:37:36.932Z,25.88
2018-09-12T09:40:40.256Z,25.88
2018-09-12T09:43:43.574Z,25.93
2018-09-12T09:46:47.834Z,25.89
2018-09-12T09:49:55.440Z,26.16
2018-09-12T09:52:59.270Z,26.37
2018-09-12T09:56:03.075Z,26.61
2018-09-12T09:59:06.318Z,26.76
2018-09-12T10:02:14.912Z,26.75
2018-09-12T10:05:23.551Z,27.01
2018-09-12T10:08:30.134Z,27.27
2018-09-12T10:11:33.457Z,27.50
2018-09-12T10:14:36.731Z,27.62
2018-09-12T10:17:40.010Z,27.74
2018-09-12T10:20:44.556Z,27.62
2018-09-12T10:23:47.887Z,27.89
2018-09-12T10:26:51.144Z,28.00
2018-09-12T10:29:55.402Z,27.94
2018-09-12T10:32:59.233Z,28.08
2018-09-12T10:36:02.384Z,28.31
2018-09-12T10:39:08.367Z,28.59
2018-09-12T10:42:11.542Z,28.71
2018-09-12T10:45:14.868Z,28.55
2018-09-12T10:48:18.057Z,28.73
2018-09-12T10:51:22.377Z,28.93
2018-09-12T10:54:25.682Z,29.15
2018-09-12T10:57:29.304Z,29.16
2018-09-12T11:00:32.561Z,29.11
2018-09-12T11:03:35.772Z,29.25
2018-09-12T11:06:39.067Z,29.54
2018-09-12T11:09:42.354Z,29.44
2018-09-12T11:12:46.204Z,29.49
2018-09-12T11:15:49.548Z,29.55
2018-09-12T11:18:52.907Z,29.70
2018-09-12T11:21:56.154Z,29.84
2018-09-12T11:25:00.288Z,30.07
2018-09-12T11:28:03.641Z,30.20
2018-09-12T11:31:07.045Z,30.21
2018-09-12T11:34:10.307Z,30.27
2018-09-12T11:37:13.640Z,30.24
2018-09-12T11:40:16.980Z,30.13
2018-09-12T11:43:20.171Z,30.05
2018-09-12T11:46:23.438Z,30.15
2018-09-12T11:49:26.804Z,30.25
2018-09-12T11:52:31.113Z,30.32
2018-09-12T11:55:34.426Z,30.28
2018-09-12T11:58:37.665Z,30.36
2018-09-12T12:01:41.051Z,30.53
2018-09-12T12:04:44.412Z,30.64
2018-09-12T12:07:47.853Z,30.69
2018-09-12T12:10:51.284Z,30.72
2018-09-12T12:13:54.655Z,30.58
2018-09-12T12:16:59.439Z,30.63
2018-09-12T12:20:02.605Z,30.61
2018-09-12T12:23:06.351Z,30.62
2018-09-12T12:26:09.723Z,30.62
2018-09-12T12:29:12.887Z,30.64
2018-09-12T12:32:16.213Z,30.86
2018-09-12T12:35:21.067Z,30.88
2018-09-12T12:38:24.533Z,30.92
2018-09-12T12:41:27.768Z,30.92
2018-09-12T12:44:32.396Z,30.92
2018-09-12T12:47:35.666Z,30.80
2018-09-12T12:50:38.855Z,30.84
2018-09-12T12:53:42.218Z,30.87
2018-09-12T12:56:45.594Z,30.87
2018-09-12T12:59:48.838Z,30.96
2018-09-12T13:02:52.196Z,30.98
2018-09-12T13:05:55.454Z,30.96
2018-09-12T13:08:59.385Z,30.84
2018-09-12T13:12:02.515Z,30.97
2018-09-12T13:15:06.932Z,31.13
2018-09-12T13:18:10.148Z,31.08
2018-09-12T13:21:13.494Z,30.98
2018-09-12T13:24:16.640Z,31.05
2018-09-12T13:27:20.174Z,31.19
2018-09-12T13:30:23.494Z,31.30
2018-09-12T13:33:26.755Z,31.40
2018-09-12T13:36:30.888Z,31.35
2018-09-12T13:39:34.059Z,31.34
2018-09-12T13:42:37.591Z,31.43
2018-09-12T13:45:40.757Z,31.44
2018-09-12T13:48:44.075Z,31.59
2018-09-12T13:51:47.358Z,31.72
2018-09-12T13:54:50.763Z,31.75
2018-09-12T13:57:53.951Z,31.78
2018-09-12T14:00:57.268Z,31.85
2018-09-12T14:04:01.284Z,31.93
2018-09-12T14:07:04.662Z,31.85
2018-09-12T14:10:08.017Z,31.93
2018-09-12T14:13:11.342Z,32.13
2018-09-12T14:16:14.620Z,32.08
2018-09-12T14:19:17.962Z,32.09
2018-09-12T14:22:21.069Z,32.09
2018-09-12T14:25:24.359Z,32.25
2018-09-12T14:28:27.615Z,32.33
2018-09-12T14:31:32.087Z,32.10
2018-09-12T14:34:35.404Z,32.38
2018-09-12T14:37:38.783Z,32.53
2018-09-12T14:40:42.062Z,32.69
2018-09-12T14:43:46.384Z,32.72
2018-09-12T14:46:49.679Z,32.72
2018-09-12T14:49:53.065Z,32.89
2018-09-12T14:52:56.375Z,32.94
2018-09-12T14:56:00.359Z,33.03
2018-09-12T14:59:04.751Z,33.01
2018-09-12T15:02:08.071Z,32.90
2018-09-12T15:05:11.371Z,32.76
2018-09-12T15:08:14.708Z,32.63
2018-09-12T15:11:18.090Z,32.78
2018-09-12T15:14:22.328Z,32.90
2018-09-12T15:17:25.645Z,32.98
2018-09-12T15:20:29.578Z,32.82
2018-09-12T15:23:32.851Z,32.55
2018-09-12T15:26:36.963Z,31.99
2018-09-12T15:29:40.247Z,31.72
2018-09-12T15:32:43.597Z,31.49
2018-09-12T15:35:47.831Z,31.35
2018-09-12T15:38:51.193Z,31.25
2018-09-12T15:41:54.526Z,31.40
2018-09-12T15:44:58.056Z,31.38
2018-09-12T15:48:02.008Z,31.22
2018-09-12T15:51:05.231Z,31.24
2018-09-12T15:54:08.625Z,31.46
2018-09-12T15:57:11.969Z,31.50
2018-09-12T16:00:16.223Z,31.25
2018-09-12T16:03:19.520Z,31.11
2018-09-12T16:06:22.840Z,31.01
2018-09-12T16:09:26.109Z,30.91
2018-09-12T16:12:30.383Z,30.77
2018-09-12T16:15:34.001Z,30.65
2018-09-12T16:18:37.564Z,30.57
2018-09-12T16:21:40.912Z,30.63
2018-09-12T16:24:44.181Z,30.63
2018-09-12T16:27:47.612Z,30.58
2018-09-12T16:30:50.915Z,30.59
2018-09-12T16:33:55.260Z,30.60
2018-09-12T16:36:58.540Z,30.52
2018-09-12T16:40:03.730Z,30.57
2018-09-12T16:43:07.243Z,30.45
2018-09-12T16:46:10.835Z,30.45
2018-09-12T16:49:14.079Z,30.52
2018-09-12T16:52:17.283Z,30.53
2018-09-12T16:55:20.608Z,30.63
2018-09-12T16:58:23.819Z,30.57
2018-09-12T17:01:27.079Z,30.50
2018-09-12T17:04:31.528Z,30.44
2018-09-12T17:07:34.838Z,30.33
2018-09-12T17:10:38.081Z,30.23
2018-09-12T17:13:41.371Z,30.21
2018-09-12T17:16:44.572Z,30.14
2018-09-12T17:19:47.898Z,30.04
2018-09-12T17:22:51.150Z,30.09
2018-09-12T17:25:54.592Z,30.09
2018-09-12T17:28:57.888Z,30.00
2018-09-12T17:32:01.892Z,29.88
2018-09-12T17:35:05.272Z,29.81
2018-09-12T17:38:08.599Z,29.74
2018-09-12T17:41:11.867Z,29.62
2018-09-12T17:44:15.270Z,29.55
2018-09-12T17:47:18.578Z,29.48
2018-09-12T17:50:21.808Z,29.45
2018-09-12T17:53:25.060Z,29.33
2018-09-12T17:56:28.303Z,29.15
2018-09-12T17:59:32.942Z,29.00
2018-09-12T18:02:36.180Z,28.82
2018-09-12T18:05:39.664Z,28.65
2018-09-12T18:08:43.024Z,28.51
2018-09-12T18:11:46.249Z,28.35
2018-09-12T18:14:49.521Z,28.24
2018-09-12T18:17:52.820Z,28.09
2018-09-12T18:20:56.239Z,27.96
2018-09-12T18:24:00.241Z,27.83
2018-09-12T18:27:03.734Z,27.72
2018-09-12T18:30:07.967Z,27.58
2018-09-12T18:33:11.242Z,27.42
2018-09-12T18:36:14.438Z,27.31
2018-09-12T18:39:17.744Z,27.21
2018-09-12T18:42:21.088Z,27.08
2018-09-12T18:45:24.444Z,27.02
2018-09-12T18:48:27.749Z,26.92
2018-09-12T18:51:31.140Z,26.88
2018-09-12T18:54:34.395Z,26.78
2018-09-12T18:57:37.787Z,26.75
2018-09-12T19:00:41.130Z,26.71
2018-09-12T19:03:44.401Z,26.62
2018-09-12T19:06:48.191Z,26.46
2018-09-12T19:09:51.754Z,26.36
2018-09-12T19:12:55.060Z,26.23
2018-09-12T19:15:58.211Z,26.15
2018-09-12T19:19:01.540Z,26.05
2018-09-12T19:22:04.812Z,25.99
2018-09-12T19:25:09.220Z,25.87
2018-09-12T19:28:12.523Z,25.74
2018-09-12T19:31:15.829Z,25.66
2018-09-12T19:34:20.087Z,25.49
2018-09-12T19:37:23.339Z,25.50
2018-09-12T19:40:26.683Z,25.47
2018-09-12T19:43:29.927Z,25.45
2018-09-12T19:46:34.374Z,25.38
2018-09-12T19:49:37.699Z,25.33
2018-09-12T19:52:40.969Z,25.18
2018-09-12T19:55:44.275Z,25.15
2018-09-12T19:58:48.681Z,25.00
2018-09-12T20:01:51.989Z,24.96
2018-09-12T20:04:55.506Z,24.94
2018-09-12T20:07:58.776Z,24.92
2018-09-12T20:11:02.861Z,24.90
2018-09-12T20:14:06.218Z,24.82
2018-09-12T20:17:09.551Z,24.82
2018-09-12T20:20:12.850Z,24.75
2018-09-12T20:23:16.206Z,24.73
2018-09-12T20:26:20.864Z,24.65
2018-09-12T20:29:24.124Z,24.60
2018-09-12T20:32:27.438Z,24.53
2018-09-12T20:35:31.808Z,24.40
2018-09-12T20:38:35.045Z,24.29
2018-09-12T20:41:38.384Z,24.21
2018-09-12T20:44:41.642Z,24.17
2018-09-12T20:47:45.040Z,24.17
2018-09-12T20:50:50.152Z,24.15
2018-09-12T20:53:53.464Z,24.06
2018-09-12T20:56:56.763Z,23.99
2018-09-12T21:00:00.357Z,23.87
2018-09-12T21:03:03.671Z,23.69
2018-09-12T21:06:06.942Z,23.69
2018-09-12T21:09:12.733Z,23.59
2018-09-12T21:12:15.883Z,23.63
2018-09-12T21:15:20.140Z,23.57
2018-09-12T21:18:23.445Z,23.64
2018-09-12T21:21:26.827Z,23.75
2018-09-12T21:24:30.246Z,23.83
2018-09-12T21:27:33.556Z,23.93
2018-09-12T21:30:36.991Z,23.94
2018-09-12T21:33:40.230Z,23.93
2018-09-12T21:36:43.539Z,23.93
2018-09-12T21:39:46.807Z,23.94
2018-09-12T21:42:50.567Z,23.91
2018-09-12T21:45:53.918Z,23.92
2018-09-12T21:48:57.793Z,23.87
2018-09-12T21:52:01.865Z,23.77
2018-09-12T21:55:05.243Z,23.72
2018-09-12T21:58:08.563Z,23.63
2018-09-12T22:01:11.812Z,23.56
2018-09-12T22:04:15.135Z,23.60
2018-09-12T22:07:19.114Z,23.54
2018-09-12T22:10:22.341Z,23.55
2018-09-12T22:13:25.649Z,23.60
2018-09-12T22:16:28.912Z,23.61
2018-09-12T22:19:33.384Z,23.61
2018-09-12T22:22:36.711Z,23.64
2018-09-12T22:25:39.934Z,23.66
2018-09-12T22:28:43.117Z,23.64
2018-09-12T22:31:46.486Z,23.63
2018-09-12T22:34:49.759Z,23.60
2018-09-12T22:37:53.276Z,23.59
2018-09-12T22:40:56.557Z,23.56
2018-09-12T22:43:59.903Z,23.44
2018-09-12T22:47:03.272Z,23.26
2018-09-12T22:50:06.751Z,23.17
2018-09-12T22:53:10.022Z,23.08
2018-09-12T22:56:13.339Z,22.90
2018-09-12T22:59:16.642Z,22.84
2018-09-12T23:02:20.856Z,22.74
2018-09-12T23:05:24.128Z,22.65
2018-09-12T23:08:27.334Z,22.57
2018-09-12T23:11:30.571Z,22.55
2018-09-12T23:14:33.867Z,22.51
2018-09-12T23:17:37.153Z,22.43
2018-09-12T23:20:40.439Z,22.35
2018-09-12T23:23:43.763Z,22.32
2018-09-12T23:26:47.002Z,22.31
2018-09-12T23:29:51.107Z,22.24
2018-09-12T23:32:54.485Z,22.11
2018-09-12T23:35:57.820Z,22.08
2018-09-12T23:39:01.041Z,22.06
2018-09-12T23:42:04.318Z,22.02
2018-09-12T23:45:07.626Z,22.03
2018-09-12T23:48:10.832Z,21.87
2018-09-12T23:51:14.130Z,21.84
2018-09-12T23:54:17.427Z,21.74
2018-09-12T23:57:21.446Z,21.74
